createdAt,value
2023-02-09T00:13:31.614Z,2403.58795
2023-02-09T00:28:33.540Z,2454.21297
2023-02-09T00:43:35.467Z,2493.02377
2023-02-09T00:58:37.414Z,2530.68984
2023-02-09T01:13:39.359Z,2571.97748
2023-02-09T01:28:41.320Z,2604.47088
2023-02-09T01:43:43.232Z,2648.22186
2023-02-09T01:58:45.255Z,2693.46786
2023-02-09T02:13:47.185Z,2698.89277
2023-02-09T02:28:49.156Z,2731.90674
2023-02-09T02:43:51.104Z,2754.36846
2023-02-09T02:58:53.274Z,2785.86331
2023-02-09T03:13:55.154Z,2829.98997
2023-02-09T03:28:57.073Z,2854.10063
2023-02-09T03:43:58.969Z,2909.88109
2023-02-09T03:59:00.917Z,2938.59702
2023-02-09T04:14:02.919Z,2994.41389
2023-02-09T04:29:04.882Z,3009.54568
2023-02-09T04:44:06.849Z,3055.87278
2023-02-09T04:59:08.851Z,3078.69089
2023-02-09T05:14:10.818Z,3123.54361
2023-02-09T05:29:12.782Z,3121.72442
2023-02-09T05:44:14.717Z,3147.38745
2023-02-09T05:59:16.762Z,3171.59812
2023-02-09T06:14:18.672Z,3221.15433
2023-02-09T06:29:20.662Z,3337.48492
2023-02-09T06:44:22.582Z,3325.06252
2023-02-09T06:59:24.569Z,3298.46203
2023-02-09T07:14:26.488Z,3335.40808
2023-02-09T07:29:28.413Z,3141.85277
2023-02-09T07:44:30.359Z,3059.36121
2023-02-09T07:59:32.326Z,3152.94166
2023-02-09T08:14:34.253Z,3084.00509
2023-02-09T08:29:36.153Z,3101.85234
2023-02-09T08:44:38.086Z,3205.74211
2023-02-09T08:59:40.026Z,3112.66018
2023-02-09T09:14:41.956Z,3162.24237
2023-02-09T09:29:43.898Z,3217.2874
2023-02-09T09:44:47.391Z,3143.6955
2023-02-09T09:59:49.542Z,3127.18835
2023-02-09T10:14:51.418Z,3119.90735
2023-02-09T10:29:53.317Z,3119.90735
2023-02-09T10:44:55.250Z,3141.85277
2023-02-09T10:59:57.276Z,3138.17379
2023-02-09T11:14:59.187Z,3177.23819
2023-02-09T11:30:01.213Z,3190.47668
2023-02-09T11:45:03.139Z,3200.00049
2023-02-09T12:00:05.084Z,3182.89835
2023-02-09T12:15:06.933Z,3151.08808
2023-02-09T12:30:08.822Z,3207.66057
2023-02-09T12:45:10.747Z,3140.0122
2023-02-09T13:00:12.703Z,3109.04921
2023-02-09T13:15:14.652Z,3089.33766
2023-02-09T13:30:17.904Z,3031.67469
2023-02-09T13:45:19.891Z,2981.09063
2023-02-09T14:00:21.811Z,2906.72504
2023-02-09T14:15:23.726Z,2869.37954
2023-02-09T14:30:25.819Z,2797.49531
2023-02-09T14:45:27.814Z,2797.49531
2023-02-09T15:00:29.758Z,2785.86331
2023-02-09T15:15:31.813Z,2774.32765
2023-02-09T15:30:33.745Z,2729.12476
2023-02-09T15:45:35.663Z,2729.12476
2023-02-09T16:00:37.599Z,2685.37126
2023-02-09T16:15:39.568Z,2658.73068
2023-02-09T16:30:41.463Z,1760.84149
2023-02-09T16:45:53.957Z,1726.80462
2023-02-09T17:01:03.456Z,1767.81052
2023-02-09T17:16:05.482Z,1818.18231
2023-02-09T17:31:07.578Z,1918.39706
2023-02-09T17:46:09.505Z,1985.18568
2023-02-09T18:01:11.508Z,2072.69965
2023-02-09T18:16:13.437Z,2048.93016
2023-02-09T18:31:15.380Z,2024.16968
2023-02-09T18:46:17.436Z,1889.98639
2023-02-09T19:01:19.515Z,1867.59632
2023-02-09T19:16:21.636Z,1824.37082
2023-02-09T19:31:23.596Z,1803.49982
2023-02-09T19:46:25.611Z,1823.12975
2023-02-09T20:01:27.566Z,1888.65448
2023-02-09T20:16:29.710Z,1954.77803
2023-02-09T20:31:31.743Z,2097.02711
2023-02-09T20:46:33.680Z,2173.56093
2023-02-09T21:01:35.645Z,2154.34134
2023-02-09T21:16:37.767Z,2222.22273
2023-02-09T21:31:39.844Z,2244.55662
2023-02-09T21:46:41.905Z,2267.34399
2023-02-09T22:01:43.877Z,2355.0093
2023-02-09T22:16:45.839Z,2447.4891
2023-02-09T22:31:47.715Z,2509.36381
2023-02-09T22:46:49.609Z,2521.16702
2023-02-09T23:01:51.539Z,2549.95294
2023-02-09T23:16:53.520Z,2650.84127
2023-02-09T23:31:55.490Z,2688.06471
2023-02-09T23:46:57.382Z,2726.34844
